createdAt,value
2023-03-04T00:01:32.345Z,42.03
2023-03-04T00:03:34.521Z,43.10
2023-03-04T00:05:37.727Z,46.72
2023-03-04T00:07:40.313Z,45.35
2023-03-04T00:09:46.306Z,42.47
2023-03-04T00:11:48.638Z,36.85
2023-03-04T00:13:51.205Z,38.45
2023-03-04T00:15:53.600Z,38.72
2023-03-04T00:17:56.837Z,41.38
2023-03-04T00:19:59.008Z,41.65
2023-03-04T00:22:01.487Z,39.70
2023-03-04T00:24:04.031Z,39.47
2023-03-04T00:26:06.349Z,49.28
2023-03-04T00:28:08.698Z,46.50
2023-03-04T00:30:11.927Z,42.47
2023-03-04T00:32:14.253Z,52.53
2023-03-04T00:34:16.737Z,46.35
2023-03-04T00:36:19.644Z,44.63
2023-03-04T00:38:22.406Z,42.25
2023-03-04T00:40:25.196Z,42.60
2023-03-04T00:42:27.667Z,43.17
2023-03-04T00:44:30.646Z,49.88
2023-03-04T00:46:33.369Z,47.17
2023-03-04T00:48:35.898Z,42.15
2023-03-04T00:50:38.568Z,46.33
2023-03-04T00:52:40.976Z,44.63
2023-03-04T00:54:43.673Z,41.10
2023-03-04T00:56:46.072Z,41.92
2023-03-04T00:58:48.615Z,45.75
2023-03-04T01:00:51.077Z,45.42
2023-03-04T01:02:54.574Z,40.83
2023-03-04T01:04:56.840Z,44.72
2023-03-04T01:06:59.163Z,41.15
2023-03-04T01:09:02.378Z,46.65
2023-03-04T01:11:06.678Z,48.85
2023-03-04T01:13:09.205Z,39.58
2023-03-04T01:15:13.846Z,46.85
2023-03-04T01:17:16.254Z,45.70
2023-03-04T01:19:19.301Z,40.60
2023-03-04T01:21:21.693Z,49.90
2023-03-04T01:23:24.004Z,51.47
2023-03-04T01:25:26.926Z,46.83
2023-03-04T01:27:30.136Z,48.67
2023-03-04T01:29:32.626Z,48.72
2023-03-04T01:31:35.015Z,44.75
2023-03-04T01:33:37.395Z,43.90
2023-03-04T01:35:39.745Z,48.65
2023-03-04T01:37:42.524Z,45.53
2023-03-04T01:39:44.867Z,49.35
2023-03-04T01:41:47.458Z,42.50
2023-03-04T01:43:49.974Z,38.05
2023-03-04T01:45:54.409Z,41.58
2023-03-04T01:47:56.906Z,41.03
2023-03-04T01:50:01.887Z,40.50
2023-03-04T01:52:04.643Z,40.10
2023-03-04T01:54:06.832Z,39.75
2023-03-04T01:56:34.926Z,47.45
2023-03-04T01:58:37.979Z,38.90
2023-03-04T02:00:40.815Z,42.42
2023-03-04T02:02:43.488Z,50.60
2023-03-04T02:04:46.414Z,43.30
2023-03-04T02:06:49.702Z,49.38
2023-03-04T02:08:52.033Z,46.30
2023-03-04T02:10:55.202Z,43.80
2023-03-04T02:12:58.779Z,47.20
2023-03-04T02:15:01.218Z,48.88
2023-03-04T02:17:03.446Z,38.95
2023-03-04T02:19:14.038Z,40.90
2023-03-04T02:21:25.837Z,46.22
2023-03-04T02:23:50.070Z,42.13
2023-03-04T02:26:29.566Z,46.22
2023-03-04T02:28:32.034Z,50.50
2023-03-04T02:30:35.360Z,48.08
2023-03-04T02:32:37.996Z,45.17
2023-03-04T02:34:47.964Z,49.10
2023-03-04T02:36:53.258Z,48.75
2023-03-04T02:39:01.512Z,48.67
2023-03-04T02:41:06.943Z,45.50
2023-03-04T02:43:12.198Z,45.50
2023-03-04T02:45:38.076Z,45.88
2023-03-04T02:47:42.241Z,46.08
2023-03-04T02:49:45.090Z,43.88
2023-03-04T02:51:52.365Z,39.97
2023-03-04T02:55:58.367Z,42.88
2023-03-04T02:58:03.310Z,43.45
2023-03-04T03:00:06.123Z,49.88
2023-03-04T03:02:09.590Z,48.15
2023-03-04T03:04:13.213Z,48.22
2023-03-04T03:06:17.148Z,37.53
2023-03-04T03:08:19.778Z,47.60
2023-03-04T03:10:22.832Z,39.10
2023-03-04T03:12:25.918Z,42.70
2023-03-04T03:14:28.337Z,51.95
2023-03-04T03:16:30.865Z,43.10
2023-03-04T03:18:33.234Z,47.05
2023-03-04T03:20:35.825Z,49.72
2023-03-04T03:22:38.755Z,45.53
2023-03-04T03:24:40.992Z,39.83
2023-03-04T03:26:43.244Z,44.70
2023-03-04T03:28:45.585Z,38.42
2023-03-04T03:30:48.369Z,35.88
2023-03-04T03:32:51.056Z,43.17
2023-03-04T03:34:53.465Z,47.72
2023-03-04T03:36:55.902Z,45.95
2023-03-04T03:38:58.478Z,37.10
2023-03-04T03:41:00.883Z,34.67
2023-03-04T03:43:03.394Z,39.88
2023-03-04T03:45:06.156Z,29.85
2023-03-04T03:47:08.464Z,37.03
2023-03-04T03:49:10.923Z,36.22
2023-03-04T03:51:13.637Z,46.08
2023-03-04T03:53:15.903Z,40.45
2023-03-04T03:55:18.549Z,32.03
2023-03-04T03:57:20.749Z,35.22
2023-03-04T03:59:24.310Z,36.10
2023-03-04T04:01:26.478Z,34.85
2023-03-04T04:03:29.934Z,34.75
2023-03-04T04:05:32.617Z,31.77
2023-03-04T04:07:35.184Z,40.00
2023-03-04T04:09:37.399Z,36.95
2023-03-04T04:11:39.986Z,34.80
2023-03-04T04:13:42.802Z,38.03
2023-03-04T04:15:45.202Z,42.88
2023-03-04T04:17:48.012Z,44.70
2023-03-04T04:19:50.320Z,45.65
2023-03-04T04:21:52.561Z,39.25
2023-03-04T04:23:55.161Z,36.50
2023-03-04T04:25:58.132Z,39.00
2023-03-04T04:28:00.405Z,44.35
2023-03-04T04:30:04.233Z,42.63
2023-03-04T04:32:07.063Z,44.15
2023-03-04T04:34:09.704Z,36.53
2023-03-04T04:36:15.764Z,35.45
2023-03-04T04:38:18.178Z,44.30
2023-03-04T04:40:20.601Z,33.03
2023-03-04T04:42:24.058Z,37.20
2023-03-04T04:44:26.514Z,37.85
2023-03-04T04:46:29.174Z,31.08
2023-03-04T04:48:31.754Z,36.03
2023-03-04T04:50:34.472Z,36.53
2023-03-04T04:52:36.923Z,38.72
2023-03-04T04:54:39.089Z,37.22
2023-03-04T04:56:42.473Z,41.10
2023-03-04T04:58:45.632Z,35.08
2023-03-04T05:00:47.914Z,36.17
2023-03-04T05:02:50.452Z,29.77
2023-03-04T05:04:52.788Z,37.22
2023-03-04T05:06:55.048Z,36.95
2023-03-04T05:08:57.585Z,35.03
2023-03-04T05:10:59.846Z,32.70
2023-03-04T05:13:02.250Z,34.22
2023-03-04T05:15:05.188Z,31.60
2023-03-04T05:17:08.164Z,31.30
2023-03-04T05:19:11.272Z,30.90
2023-03-04T05:21:14.410Z,36.15
2023-03-04T05:23:16.526Z,30.33
2023-03-04T05:25:18.735Z,33.88
2023-03-04T05:27:21.035Z,36.08
2023-03-04T05:29:23.653Z,31.52
2023-03-04T05:31:25.909Z,33.53
2023-03-04T05:33:28.801Z,33.22
2023-03-04T05:35:31.094Z,29.48
2023-03-04T05:37:33.424Z,27.77
2023-03-04T05:39:35.719Z,29.48
2023-03-04T05:41:37.983Z,26.25
2023-03-04T05:43:43.072Z,32.63
2023-03-04T05:45:45.693Z,32.58
2023-03-04T05:47:47.980Z,31.23
2023-03-04T05:49:50.475Z,32.42
2023-03-04T05:51:52.918Z,38.53
2023-03-04T05:53:55.221Z,39.75
2023-03-04T05:55:59.447Z,31.80
2023-03-04T05:58:01.867Z,29.27
2023-03-04T06:00:06.107Z,35.10
2023-03-04T06:02:14.783Z,34.47
2023-03-04T06:04:17.770Z,37.30
2023-03-04T06:06:19.948Z,31.83
2023-03-04T06:08:23.198Z,32.35
2023-03-04T06:10:25.780Z,34.53
2023-03-04T06:12:29.041Z,35.92
2023-03-04T06:14:31.331Z,35.28
2023-03-04T06:16:33.914Z,41.00
2023-03-04T06:18:36.228Z,36.83
2023-03-04T06:20:38.674Z,32.70
2023-03-04T06:22:41.148Z,31.67
2023-03-04T06:24:43.977Z,29.90
2023-03-04T06:26:46.540Z,32.92
2023-03-04T06:28:48.862Z,32.40
2023-03-04T06:30:56.610Z,28.33
2023-03-04T06:32:59.035Z,31.25
2023-03-04T06:35:01.542Z,30.27
2023-03-04T06:37:04.224Z,33.10
2023-03-04T06:39:07.990Z,41.25
2023-03-04T06:41:12.767Z,28.25
2023-03-04T06:43:15.110Z,30.27
2023-03-04T06:45:17.415Z,29.40
2023-03-04T06:47:20.217Z,35.88
2023-03-04T06:49:22.656Z,26.25
2023-03-04T06:51:24.978Z,25.20
2023-03-04T06:53:27.512Z,32.85
2023-03-04T06:55:29.920Z,29.05
2023-03-04T06:57:32.409Z,26.80
2023-03-04T06:59:35.617Z,29.17
2023-03-04T07:01:38.593Z,26.63
2023-03-04T07:03:41.347Z,31.42
2023-03-04T07:05:44.218Z,26.30
2023-03-04T07:07:46.484Z,31.27
2023-03-04T07:09:49.003Z,24.83
2023-03-04T07:11:51.506Z,27.88
2023-03-04T07:13:53.871Z,26.30
2023-03-04T07:15:57.208Z,26.35
2023-03-04T07:17:59.977Z,24.55
2023-03-04T07:20:04.884Z,28.63
2023-03-04T07:22:07.137Z,26.00
2023-03-04T07:24:09.412Z,29.88
2023-03-04T07:26:11.952Z,25.75
2023-03-04T07:28:14.403Z,28.65
2023-03-04T07:30:16.895Z,30.20
2023-03-04T07:32:19.775Z,31.80
2023-03-04T07:34:22.315Z,27.10
2023-03-04T07:36:25.926Z,28.42
2023-03-04T07:38:28.758Z,31.25
2023-03-04T07:40:31.085Z,33.28
2023-03-04T07:42:33.716Z,34.38
2023-03-04T07:44:41.281Z,31.75
2023-03-04T07:46:43.774Z,35.22
2023-03-04T07:48:47.206Z,31.73
2023-03-04T07:50:49.614Z,32.08
2023-03-04T07:52:52.037Z,34.28
2023-03-04T07:54:54.241Z,29.08
2023-03-04T07:56:57.221Z,30.17
2023-03-04T07:59:00.436Z,32.90
2023-03-04T08:01:13.345Z,33.50
2023-03-04T08:03:16.088Z,28.98
2023-03-04T08:05:18.414Z,32.38
2023-03-04T08:07:21.251Z,30.85
2023-03-04T08:09:23.955Z,32.40
2023-03-04T08:11:28.367Z,35.10
2023-03-04T08:13:31.084Z,32.00
2023-03-04T08:15:35.543Z,30.05
2023-03-04T08:17:38.767Z,31.08
2023-03-04T08:19:41.469Z,30.80
2023-03-04T08:21:44.354Z,31.52
2023-03-04T08:23:47.627Z,28.02
2023-03-04T08:25:50.709Z,31.33
2023-03-04T08:27:53.505Z,31.50
2023-03-04T08:29:55.840Z,29.25
2023-03-04T08:31:58.996Z,30.15
2023-03-04T08:34:03.879Z,30.25
2023-03-04T08:36:07.638Z,25.70
2023-03-04T08:38:10.561Z,28.20
2023-03-04T08:40:15.038Z,24.92
2023-03-04T08:42:17.375Z,25.35
2023-03-04T08:44:19.968Z,25.48
2023-03-04T08:46:23.394Z,24.15
2023-03-04T08:48:26.125Z,27.00
2023-03-04T08:50:29.452Z,26.67
2023-03-04T08:52:32.711Z,33.47
2023-03-04T08:54:35.499Z,23.17
2023-03-04T08:56:38.181Z,28.52
2023-03-04T08:58:41.198Z,27.38
2023-03-04T09:00:48.662Z,28.00
2023-03-04T09:02:51.234Z,26.42
2023-03-04T09:04:54.098Z,29.75
2023-03-04T09:06:56.496Z,24.48
2023-03-04T09:09:00.110Z,29.90
2023-03-04T09:11:04.223Z,29.15
2023-03-04T09:13:07.200Z,32.47
2023-03-04T09:15:11.997Z,32.20
2023-03-04T09:17:14.878Z,27.58
2023-03-04T09:19:17.890Z,25.85
2023-03-04T09:21:20.282Z,30.52
2023-03-04T09:23:23.341Z,29.00
2023-03-04T09:25:26.046Z,30.17
2023-03-04T09:27:29.241Z,27.98
2023-03-04T09:29:33.611Z,28.10
2023-03-04T09:31:36.584Z,23.80
2023-03-04T09:33:42.042Z,27.80
2023-03-04T09:35:45.339Z,30.60
2023-03-04T09:37:49.221Z,22.58
2023-03-04T09:39:51.869Z,26.67
2023-03-04T09:41:59.460Z,25.00
2023-03-04T09:44:21.591Z,27.05
2023-03-04T09:46:39.825Z,25.50
2023-03-04T09:48:55.107Z,21.60
2023-03-04T09:51:13.279Z,25.60
2023-03-04T09:53:55.581Z,31.98
2023-03-04T09:55:59.511Z,24.83
2023-03-04T09:58:27.266Z,27.38
2023-03-04T10:01:13.966Z,26.52
2023-03-04T10:03:21.511Z,24.13
2023-03-04T10:05:26.539Z,28.15
2023-03-04T10:07:43.864Z,29.30
2023-03-04T10:09:48.338Z,26.77
2023-03-04T10:12:03.360Z,25.77
2023-03-04T10:14:16.799Z,23.38
2023-03-04T10:16:25.386Z,25.67
2023-03-04T10:18:37.989Z,24.63
2023-03-04T10:20:52.246Z,26.42
2023-03-04T10:23:03.380Z,24.00
2023-03-04T10:25:24.949Z,23.48
2023-03-04T10:27:27.593Z,28.65
2023-03-04T10:29:32.941Z,25.13
2023-03-04T10:31:37.728Z,24.45
2023-03-04T10:33:41.130Z,25.45
2023-03-04T10:36:03.982Z,22.10
2023-03-04T10:38:07.467Z,24.40
2023-03-04T10:40:24.731Z,17.63
2023-03-04T10:42:30.597Z,26.70
2023-03-04T10:44:35.476Z,24.60
2023-03-04T10:46:42.483Z,23.05
2023-03-04T10:48:45.844Z,30.60
2023-03-04T10:50:48.197Z,24.15
2023-03-04T10:52:53.337Z,24.77
2023-03-04T10:55:17.943Z,27.05
2023-03-04T10:57:25.015Z,23.48
2023-03-04T10:59:41.239Z,21.70
2023-03-04T11:01:43.612Z,22.17
2023-03-04T11:03:50.509Z,22.08
2023-03-04T11:06:05.637Z,24.40
2023-03-04T11:08:21.811Z,26.83
2023-03-04T11:10:24.169Z,22.80
2023-03-04T11:12:34.637Z,22.10
2023-03-04T11:14:43.600Z,23.50
2023-03-04T11:16:55.376Z,33.85
2023-03-04T11:19:05.988Z,25.83
2023-03-04T11:21:14.282Z,21.45
2023-03-04T11:24:26.048Z,21.70
2023-03-04T11:26:47.738Z,22.23
2023-03-04T11:28:56.679Z,22.33
2023-03-04T11:31:03.716Z,24.63
2023-03-04T11:33:36.286Z,20.90
2023-03-04T11:35:52.694Z,19.65
2023-03-04T11:38:18.718Z,18.75
2023-03-04T11:40:36.731Z,18.90
2023-03-04T11:42:46.126Z,20.17
2023-03-04T11:44:48.947Z,19.10
2023-03-04T11:47:10.068Z,15.15
2023-03-04T11:49:31.672Z,18.10
2023-03-04T11:52:14.906Z,18.40
2023-03-04T11:54:42.255Z,23.55
2023-03-04T11:56:48.365Z,17.40
2023-03-04T11:59:11.682Z,18.20
2023-03-04T12:01:55.772Z,13.20
2023-03-04T12:04:36.764Z,12.18
2023-03-04T12:06:44.700Z,11.43
2023-03-04T12:09:05.457Z,17.10
2023-03-04T12:11:08.567Z,14.77
2023-03-04T12:16:31.072Z,18.58
2023-03-04T12:18:54.892Z,13.40
2023-03-04T12:21:10.094Z,14.02
2023-03-04T12:23:32.248Z,14.88
2023-03-04T12:25:40.967Z,19.98
2023-03-04T12:27:52.678Z,13.68
2023-03-04T12:30:08.139Z,14.25
2023-03-04T12:32:41.688Z,13.73
2023-03-04T12:35:18.455Z,13.15
2023-03-04T12:39:41.446Z,14.63
2023-03-04T12:41:46.749Z,16.80
2023-03-04T12:43:59.406Z,15.20
2023-03-04T12:46:07.760Z,14.45
2023-03-04T12:48:25.569Z,15.75
2023-03-04T12:50:30.699Z,15.02
2023-03-04T12:52:54.379Z,15.82
2023-03-04T12:55:03.177Z,16.70
2023-03-04T12:57:14.626Z,14.60
2023-03-04T12:59:20.101Z,14.25
2023-03-04T13:01:34.361Z,15.05
2023-03-04T13:03:44.758Z,15.30
2023-03-04T13:06:13.527Z,14.88
2023-03-04T13:08:30.603Z,14.43
2023-03-04T13:10:33.067Z,16.90
2023-03-04T13:12:58.241Z,11.82
2023-03-04T13:15:09.805Z,15.23
2023-03-04T13:17:44.065Z,14.32
2023-03-04T13:19:52.670Z,12.15
2023-03-04T13:21:55.902Z,10.27
2023-03-04T13:24:02.965Z,14.13
2023-03-04T13:26:22.434Z,13.95
2023-03-04T13:28:30.561Z,13.70
2023-03-04T13:30:33.024Z,15.52
2023-03-04T13:32:38.612Z,14.75
2023-03-04T13:34:54.850Z,14.68
2023-03-04T13:36:57.457Z,13.13
2023-03-04T13:39:23.025Z,14.63
2023-03-04T13:41:32.422Z,16.35
2023-03-04T13:43:40.054Z,16.10
2023-03-04T13:45:42.761Z,14.85
2023-03-04T13:47:49.256Z,14.15
2023-03-04T13:50:25.844Z,13.82
2023-03-04T13:52:44.731Z,17.98
2023-03-04T13:54:47.428Z,14.75
2023-03-04T13:57:22.235Z,13.73
2023-03-04T13:59:28.996Z,12.90
2023-03-04T14:01:34.023Z,16.60
2023-03-04T14:03:36.537Z,14.23
2023-03-04T14:05:38.820Z,13.80
2023-03-04T14:07:41.303Z,14.65
2023-03-04T14:09:58.618Z,12.93
2023-03-04T14:12:04.491Z,13.57
2023-03-04T14:14:11.037Z,12.85
2023-03-04T14:16:20.484Z,14.63
2023-03-04T14:18:25.715Z,17.25
2023-03-04T14:20:30.226Z,14.65
2023-03-04T14:22:39.612Z,13.73
2023-03-04T14:24:42.060Z,16.92
2023-03-04T14:26:44.930Z,16.65
2023-03-04T14:28:52.490Z,18.35
2023-03-04T14:30:57.907Z,19.55
2023-03-04T14:33:00.935Z,16.10
2023-03-04T14:35:19.541Z,14.45
2023-03-04T14:37:32.806Z,16.95
2023-03-04T14:41:43.971Z,16.10
2023-03-04T14:44:04.177Z,16.80
2023-03-04T14:46:12.628Z,20.02
2023-03-04T14:48:33.788Z,18.73
2023-03-04T14:50:37.787Z,19.50
2023-03-04T14:52:44.242Z,18.10
2023-03-04T14:55:02.653Z,19.65
2023-03-04T14:57:26.380Z,15.68
2023-03-04T14:59:37.589Z,17.05
2023-03-04T15:01:40.343Z,16.92
2023-03-04T15:03:56.716Z,19.85
2023-03-04T15:06:23.724Z,18.10
2023-03-04T15:08:30.043Z,20.08
2023-03-04T15:10:36.639Z,20.50
2023-03-04T15:12:39.511Z,18.95
2023-03-04T15:14:54.754Z,15.43
2023-03-04T15:16:57.707Z,16.67
2023-03-04T15:19:06.927Z,18.33
2023-03-04T15:21:31.822Z,17.25
2023-03-04T15:23:34.529Z,20.55
2023-03-04T15:25:37.406Z,16.15
2023-03-04T15:27:39.818Z,18.45
2023-03-04T15:29:42.458Z,18.08
2023-03-04T15:31:48.914Z,17.65
2023-03-04T15:33:52.977Z,17.48
2023-03-04T15:36:03.001Z,19.95
2023-03-04T15:38:09.298Z,18.90
2023-03-04T15:40:25.528Z,17.83
2023-03-04T15:42:29.321Z,22.63
2023-03-04T15:44:32.249Z,19.52
2023-03-04T15:46:34.956Z,18.95
2023-03-04T15:48:37.786Z,20.60
2023-03-04T15:51:17.477Z,17.30
2023-03-04T15:53:32.676Z,18.85
2023-03-04T15:55:35.878Z,18.50
2023-03-04T15:57:38.168Z,17.27
2023-03-04T15:59:40.611Z,14.15
2023-03-04T16:01:44.057Z,18.25
2023-03-04T16:03:46.666Z,17.02
2023-03-04T16:05:52.606Z,18.33
2023-03-04T16:07:55.802Z,19.73
2023-03-04T16:10:06.153Z,21.27
2023-03-04T16:12:12.070Z,17.88
2023-03-04T16:14:15.992Z,18.10
2023-03-04T16:16:18.983Z,17.38
2023-03-04T16:18:21.841Z,18.48
2023-03-04T16:20:30.362Z,20.23
2023-03-04T16:22:32.969Z,17.38
2023-03-04T16:24:35.738Z,18.05
2023-03-04T16:26:38.499Z,17.35
2023-03-04T16:28:43.106Z,15.82
2023-03-04T16:30:46.218Z,18.15
2023-03-04T16:32:48.837Z,18.17
2023-03-04T16:34:51.570Z,14.95
2023-03-04T16:36:54.015Z,17.77
2023-03-04T16:38:58.035Z,15.38
2023-03-04T16:41:04.199Z,14.80
2023-03-04T16:43:06.836Z,16.23
2023-03-04T16:45:24.315Z,15.70
2023-03-04T16:47:28.158Z,17.88
2023-03-04T16:49:31.883Z,17.23
2023-03-04T16:51:44.179Z,18.55
2023-03-04T16:53:56.809Z,16.85
2023-03-04T16:56:05.316Z,21.77
2023-03-04T16:58:10.660Z,14.82
2023-03-04T17:00:15.582Z,21.42
2023-03-04T17:02:20.640Z,18.95
2023-03-04T17:04:25.454Z,19.23
2023-03-04T17:06:29.165Z,16.80
2023-03-04T17:08:31.466Z,19.65
2023-03-04T17:10:33.778Z,16.98
2023-03-04T17:12:36.111Z,17.75
2023-03-04T17:14:39.658Z,20.75
2023-03-04T17:16:42.491Z,14.00
2023-03-04T17:18:46.359Z,19.42
2023-03-04T17:20:48.684Z,19.33
2023-03-04T17:22:51.089Z,19.38
2023-03-04T17:24:53.495Z,18.40
2023-03-04T17:26:56.130Z,20.48
2023-03-04T17:28:58.804Z,17.55
2023-03-04T17:31:02.143Z,16.30
2023-03-04T17:33:04.516Z,18.13
2023-03-04T17:35:08.931Z,18.30
2023-03-04T17:37:11.335Z,20.58
2023-03-04T17:39:13.815Z,20.65
2023-03-04T17:41:18.610Z,23.95
2023-03-04T17:43:21.578Z,22.38
2023-03-04T17:45:24.158Z,24.92
2023-03-04T17:47:26.828Z,21.85
2023-03-04T17:49:29.556Z,19.75
2023-03-04T17:51:37.576Z,19.20
2023-03-04T17:53:40.305Z,17.40
2023-03-04T17:55:57.001Z,18.73
2023-03-04T17:57:59.295Z,17.55
2023-03-04T18:00:01.776Z,17.52
2023-03-04T18:02:07.160Z,19.65
2023-03-04T18:04:09.949Z,19.80
2023-03-04T18:06:13.340Z,23.02
2023-03-04T18:08:16.090Z,17.52
2023-03-04T18:10:19.075Z,18.80
2023-03-04T18:12:21.481Z,17.17
2023-03-04T18:14:24.386Z,18.30
2023-03-04T18:16:30.018Z,17.48
2023-03-04T18:18:32.353Z,16.85
2023-03-04T18:20:34.906Z,17.02
2023-03-04T18:22:37.640Z,16.55
2023-03-04T18:24:41.392Z,17.42
2023-03-04T18:26:43.873Z,18.83
2023-03-04T18:28:46.489Z,19.33
2023-03-04T18:30:51.341Z,16.88
2023-03-04T18:32:55.291Z,19.40
2023-03-04T18:34:57.822Z,20.45
2023-03-04T18:37:00.440Z,18.55
2023-03-04T18:39:05.734Z,17.75
2023-03-04T18:41:10.997Z,23.67
2023-03-04T18:43:13.287Z,17.05
2023-03-04T18:45:17.816Z,20.17
2023-03-04T18:47:20.823Z,21.80
2023-03-04T18:49:24.835Z,17.85
2023-03-04T18:51:27.469Z,18.23
2023-03-04T18:53:31.119Z,20.20
2023-03-04T18:55:33.717Z,16.92
2023-03-04T18:57:38.828Z,21.75
2023-03-04T18:59:50.795Z,20.83
2023-03-04T19:01:54.626Z,21.55
2023-03-04T19:03:59.726Z,22.48
2023-03-04T19:06:02.183Z,20.13
2023-03-04T19:08:07.026Z,22.35
2023-03-04T19:10:11.081Z,21.77
2023-03-04T19:12:13.833Z,22.02
2023-03-04T19:14:16.126Z,19.70
2023-03-04T19:16:19.087Z,18.00
2023-03-04T19:18:21.772Z,19.48
2023-03-04T19:20:24.168Z,17.65
2023-03-04T19:22:26.622Z,16.23
2023-03-04T19:24:29.435Z,16.00
2023-03-04T19:26:32.339Z,13.02
2023-03-04T19:28:35.871Z,16.90
2023-03-04T19:30:41.107Z,15.38
2023-03-04T19:32:47.070Z,15.55
2023-03-04T19:34:52.729Z,16.13
2023-03-04T19:36:55.675Z,15.95
2023-03-04T19:39:01.329Z,14.35
2023-03-04T19:41:18.496Z,14.10
2023-03-04T19:43:20.865Z,12.63
2023-03-04T19:45:23.523Z,15.63
2023-03-04T19:47:25.954Z,13.48
2023-03-04T19:49:28.868Z,12.35
2023-03-04T19:51:32.997Z,12.30
2023-03-04T19:53:35.448Z,10.93
2023-03-04T19:55:38.933Z,16.10
2023-03-04T19:57:42.656Z,14.38
2023-03-04T19:59:45.372Z,15.75
2023-03-04T20:01:48.315Z,13.20
2023-03-04T20:03:51.179Z,11.57
2023-03-04T20:06:05.924Z,12.18
2023-03-04T20:08:08.574Z,14.73
2023-03-04T20:10:12.127Z,13.13
2023-03-04T20:12:15.648Z,13.80
2023-03-04T20:14:18.229Z,15.48
2023-03-04T20:16:20.999Z,14.63
2023-03-04T20:18:23.611Z,10.85
2023-03-04T20:20:29.132Z,14.65
2023-03-04T20:22:32.047Z,13.50
2023-03-04T20:24:34.669Z,14.75
2023-03-04T20:26:39.716Z,10.50
2023-03-04T20:28:42.457Z,12.43
2023-03-04T20:30:45.109Z,12.18
2023-03-04T20:32:48.443Z,16.60
2023-03-04T20:34:54.561Z,13.13
2023-03-04T20:36:59.517Z,14.23
2023-03-04T20:39:06.748Z,12.95
2023-03-04T20:41:15.384Z,13.25
2023-03-04T20:43:18.141Z,9.55
2023-03-04T20:45:22.515Z,10.73
2023-03-04T20:47:25.250Z,13.00
2023-03-04T20:49:29.756Z,10.48
2023-03-04T20:51:33.420Z,13.20
2023-03-04T20:53:36.437Z,12.40
2023-03-04T20:55:39.101Z,11.45
2023-03-04T20:57:41.689Z,12.13
2023-03-04T20:59:44.427Z,14.20
2023-03-04T21:01:51.711Z,13.85
2023-03-04T21:05:56.941Z,13.40
2023-03-04T21:07:59.710Z,14.23
2023-03-04T21:10:03.185Z,12.75
2023-03-04T21:12:06.154Z,13.57
2023-03-04T21:14:22.509Z,16.05
2023-03-04T21:16:30.299Z,14.55
2023-03-04T21:18:32.962Z,14.88
2023-03-04T21:20:35.436Z,13.98
2023-03-04T21:22:37.994Z,17.75
2023-03-04T21:24:40.566Z,12.20
2023-03-04T21:26:45.766Z,15.65
2023-03-04T21:28:49.808Z,19.50
2023-03-04T21:30:52.232Z,8.05
2023-03-04T21:32:54.833Z,6.32
2023-03-04T21:34:57.534Z,6.38
2023-03-04T21:36:59.845Z,4.65
2023-03-04T21:39:02.566Z,5.35
2023-03-04T21:41:05.485Z,5.30
2023-03-04T21:43:08.139Z,6.45
2023-03-04T21:45:11.155Z,5.22
2023-03-04T21:47:13.495Z,6.03
2023-03-04T21:49:16.054Z,6.20
2023-03-04T21:51:18.327Z,6.43
2023-03-04T21:53:24.154Z,4.78
2023-03-04T21:55:26.589Z,7.43
2023-03-04T21:57:29.238Z,5.50
2023-03-04T21:59:32.748Z,9.10
2023-03-04T22:01:35.793Z,7.35
2023-03-04T22:03:38.158Z,5.47
2023-03-04T22:05:45.592Z,7.15
2023-03-04T22:07:48.047Z,6.93
2023-03-04T22:09:50.892Z,10.93
2023-03-04T22:11:53.335Z,7.05
2023-03-04T22:14:01.816Z,8.27
2023-03-04T22:16:05.383Z,5.63
2023-03-04T22:18:10.593Z,6.65
2023-03-04T22:20:15.319Z,8.32
2023-03-04T22:22:19.198Z,6.75
2023-03-04T22:24:22.777Z,6.32
2023-03-04T22:26:32.154Z,11.60
2023-03-04T22:28:35.923Z,7.55
2023-03-04T22:30:38.927Z,8.80
2023-03-04T22:32:45.282Z,7.57
2023-03-04T22:34:47.788Z,12.30
2023-03-04T22:36:50.267Z,6.93
2023-03-04T22:38:53.019Z,7.15
2023-03-04T22:40:55.418Z,8.55
2023-03-04T22:42:58.286Z,6.93
2023-03-04T22:45:00.764Z,5.53
2023-03-04T22:47:03.278Z,8.70
2023-03-04T22:49:10.541Z,8.48
2023-03-04T22:53:15.268Z,6.50
2023-03-04T22:55:20.545Z,7.22
2023-03-04T22:57:23.637Z,6.97
2023-03-04T22:59:25.928Z,9.25
2023-03-04T23:01:28.479Z,8.40
2023-03-04T23:03:31.260Z,8.60
2023-03-04T23:05:33.604Z,13.77
2023-03-04T23:07:37.036Z,7.22
2023-03-04T23:09:39.323Z,9.35
2023-03-04T23:11:42.417Z,9.65
2023-03-04T23:13:44.606Z,7.00
2023-03-04T23:15:47.072Z,8.50
2023-03-04T23:17:49.890Z,8.55
2023-03-04T23:19:52.255Z,10.25
2023-03-04T23:21:54.530Z,12.27
2023-03-04T23:23:57.789Z,11.68
2023-03-04T23:26:00.136Z,9.15
2023-03-04T23:28:03.010Z,8.32
2023-03-04T23:30:08.642Z,7.85
2023-03-04T23:32:11.187Z,10.93
2023-03-04T23:34:14.408Z,12.57
2023-03-04T23:36:19.275Z,10.57
2023-03-04T23:38:21.977Z,5.90
2023-03-04T23:40:24.232Z,6.68
2023-03-04T23:42:26.455Z,9.50
2023-03-04T23:44:28.864Z,8.82
2023-03-04T23:46:31.529Z,8.73
2023-03-04T23:48:34.300Z,10.15
2023-03-04T23:50:38.661Z,14.13
2023-03-04T23:52:41.305Z,9.02
2023-03-04T23:54:44.049Z,9.98
2023-03-04T23:56:46.705Z,12.35
2023-03-04T23:58:49.950Z,10.25
